Terminal Aerodrome Forecast
Issued by NWS

Home | Current Version | Previous Version | Text Only | Print | Product List | Glossary Off
Versions: 1 2 3 4 5 6 7 8 9 10 11 12 13 14 15 16 17 18 19 20

685
FTUS43 KGRB 040320 AAA
TAFCWA
TAF AMD
KCWA 040320Z 0403/0424 31009KT P6SM SCT025 OVC035
      TEMPO 0403/0407 BKN025
     FM040800 29004KT P6SM SCT025
     FM041500 22005KT P6SM BKN025
     FM042000 19005KT 5SM BR OVC020
      TEMPO 0420/0424 2SM -SN BR BKN012=

USA.gov is the U.S. government's official web portal to all federal, state and local government web resources and services.